Air Resources Laboratory banner image
Air Resources Laboratory web site National Oceanic and Atmospheric Administration (NOAA)

mn metar


KADC 210755Z AUTO 34006KT 10SM CLR 13/11 A3010 RMK AO2=
KAEL 210755Z AUTO 35004KT 3SM BR CLR 15/15 A2999 RMK AO2=
KAIT 210755Z AUTO 00000KT 4SM BR BKN009 BKN015 OVC021 15/14 A3006 RMK AO2=
KANE 210756Z AUTO 01007KT 10SM BKN011 OVC014 18/18 A3001 RMK AO2=
KAQP 210751Z AUTO 35005KT 10SM CLR 15/13 A3008 RMK AO2=
KAUM 210755Z AUTO 34006KT 5SM BR CLR 15/14 A2998 RMK AO2=
KAXN 210753Z AUTO 35008KT 10SM SCT047 18/12 A3011 RMK AO2 SLP193 T01780122=
KBBB 210755Z AUTO 01005KT 10SM SCT049 15/13 A3009 RMK AO2=
KBDE 210753Z AUTO 31003KT 10SM FEW090 13/11 A3010 RMK AO2 SLP194 T01330111=
KBFW 210755Z AUTO 00000KT 10SM SCT100 13/13 A3004 RMK AO2=
KBJI 210755Z AUTO 33004KT 10SM CLR 12/10 A3011 RMK AO2 T01150097=
KBRD 210753Z AUTO 34003KT 3SM BR CLR 16/14 A3006 RMK AO2 SLP178 T01560139=
KCBG 210755Z AUTO 36004KT 10SM OVC016 18/18 A3003 RMK AO2=
KCDD 210748Z AUTO 00000KT 5SM BR SCT090 08/08 A3010 RMK AO2=
KCKC 210755Z AUTO 00000KT 10SM CLR 10/08 A3006 RMK AO2=
KCKN 210755Z AUTO 32005KT 10SM CLR 13/11 A3016 RMK AO2=
KCOQ 210755Z AUTO 01003KT 7SM OVC008 16/14 A3006 RMK AO2=
KCQM 210755Z AUTO 00000KT M1/4SM FG OVC001 09/08 A3009 RMK AO2=
KDLH 210755Z 04005KT 2SM BR BKN005 16/14 A3005 RMK AO2 SLP176 T01560144=
KDTL 210755Z AUTO 00000KT 10SM SCT060 SCT070 12/10 A3014 RMK AO2 P0001=
KDXX 210755Z AUTO 34006KT 10SM CLR 16/16 A3007 RMK AO2=
KDYT 210755Z AUTO 06008KT 10SM SCT013 BKN019 OVC095 17/16 A3004 RMK AO2=
KELO 210755Z AUTO 00000KT 7SM CLR 08/08 A3007 RMK AO2=
KEVM 210755Z AUTO 00000KT 1/4SM FG VV002 09/09 A3008 RMK AO2 T00940093=
KFBL 210755Z AUTO 00000KT 7SM OVC012 17/17 A3000 RMK AO2=
KFCM 210753Z AUTO 36005KT 6SM BR OVC011 18/17 A3000 RMK AO2 SLP153 T01830167=
KFFM 210755Z AUTO 02007KT 10SM CLR 15/11 A3012 RMK AO2=
KFGN 210803Z AUTO 32005KT 10SM CLR 16/12 A3011 RMK AO2=
KFOZ 210753Z AUTO 00000KT 7SM BKN090 09/08 A3009 RMK AO2=
KFRM 210756Z AUTO 36006KT 3SM BR OVC003 18/17 A3002 RMK AO2 SLP165 T01780172=
KFSE 210755Z AUTO 33004KT 10SM SCT065 12/08 A3014 RMK AO2=
KGHW 210755Z AUTO 35007KT 10SM CLR 14/12 A3009 RMK AO2=
KGNA 210756Z AUTO 00000KT 13/11 A3003 RMK AO1 SLP168 T01330106=
KGPZ 210756Z AUTO 32010KT 1/2SM FG CLR 12/12 A3009 RMK AO2 SLP191 T01220117=
KGYL 210759Z AUTO 35006KT 5SM BR OVC006 18/18 A3001 RMK AO2=
KHCD 210755Z AUTO 35004KT 7SM OVC009 19/18 A3004 RMK AO2 T01860175=
KHCO 210755Z AUTO 32005KT 10SM SCT085 13/08 A3016 RMK AO2=
KHIB 210753Z AUTO 00000KT 3/4SM BR VV003 09/09 A3007 RMK AO2 VIS 1/4V5 SLP186
 T00890089=
KINL 210755Z AUTO 00000KT 9SM BKN095 12/12 A3009 RMK AO2 SLP192 T01220117=
KJKJ 210755Z AUTO 34004KT 10SM CLR 12/10 A3014 RMK AO2=
KJMR 210757Z AUTO 00000KT 10SM BKN016 15/14 A3006 RMK AO2=
KJYG 210755Z AUTO 30007KT 17/16 A3003 RMK AO2 PM PWINO=
KLJF 210755Z AUTO 01006KT 10SM OVC009 18/18 A3005 RMK AO2=
KLVN 210755Z AUTO 01004KT 10SM OVC010 19/19 A3000 RMK AO2=
KLXL 210755Z AUTO 00000KT 7SM CLR 15/15 A3006 RMK AO2 P0001=
KMGG 210755Z AUTO 01006KT 7SM OVC009 17/16 A3005 RMK AO2 T01700162=
KMIC 210753Z AUTO 02007KT 8SM OVC009 18/17 A3000 RMK AO2 SLP155 T01780167=
KMJQ 210755Z AUTO 31008KT 7SM CLR 15/14 A3005 RMK AO2=
KMKT 210756Z AUTO 02003KT 7SM OVC009 17/16 A3001 RMK AO2 SLP161 T01720161=
KMML 210756Z AUTO 33006KT 10SM FEW046 16/13 A3008 RMK AO2 SLP184 T01560133=
KMOX 210755Z AUTO 33005KT 7SM SCT050 13/13 A3009 RMK AO2=
KMSP 210753Z 04012KT 9SM OVC012 19/17 A3000 RMK AO2 SLP157 T01890167=
KMVE 210755Z AUTO 36006KT 10SM SCT049 15/13 A3008 RMK AO2=
KMWM 210755Z AUTO 31008KT 10SM OVC011 17/14 A3004 RMK AO2=
KMZH 210755Z AUTO 36003KT 10SM BKN026 16/13 A3004 RMK AO2=
KONA 210755Z AUTO 33004KT 10SM OVC010 19/17 A2995 RMK AO2=
KORB 210755Z AUTO 00000KT 7SM BKN090 10/09 A3007 RMK AO2=
KOTG 210756Z AUTO 33008KT 10SM CLR 16/14 A3006 RMK AO2 SLP178 T01560144=
KOWA 210811Z AUTO 01005KT 7SM OVC007 17/16 A3000 RMK AO2=
KPKD 210753Z AUTO 35007KT 10SM CLR 14/11 A3010 RMK AO2 SLP193 T01440106=
KPNM 210755Z AUTO 34005KT 10SM OVC018 17/16 A3004 RMK AO2=
KPQN 210755Z AUTO 01003KT 10SM CLR 14/13 A3008 RMK AO2=
KPWC 210755Z AUTO 34004KT 10SM CLR 13/11 A3011 RMK AO2=
KRGK 210755Z AUTO 00000KT 7SM OVC011 18/17 A2997 RMK AO2=
KROS 210755Z AUTO 35006KT 7SM SCT014 OVC020 17/15 A3003 RMK AO2 T01650148=
KROX 210755Z AUTO 31003KT 10SM CLR 13/09 A3014 RMK AO2=
KRRT 210755Z AUTO 31005KT 10SM CLR 14/09 A3013 RMK AO2=
KRST 210754Z AUTO 35009KT 5SM BR OVC004 16/16 A2998 RMK AO2 SLP148 T01610161=
KRWF 210753Z AUTO 33005KT 7SM FEW014 OVC041 17/15 A3004 RMK AO2 SLP171
 T01670150=
KSAZ 210755Z AUTO 33003KT 10SM OVC060 13/12 A3009 RMK AO2=
KSGS 210755Z AUTO 01006KT 10SM OVC010 19/17 A3000 RMK AO2 T01880167=
KSTC 210753Z AUTO 03005KT 10SM OVC009 17/16 A3004 RMK AO2 SLP179 T01670156=
KSTP 210753Z AUTO 03008KT 8SM OVC011 18/16 A3000 RMK AO2 SLP156 T01830161=
KTOB 210755Z AUTO 00000KT 5SM BR SCT005 16/15 A2998 RMK AO2=
KTVF 210756Z AUTO 36006KT 10SM CLR 16/08 A3015 RMK AO2 SLP211 T01560078=
KTWM 210755Z AUTO 00000KT 10SM SCT012 14/12 A3003 RMK AO2=
KULM 210755Z AUTO 32006KT 7SM CLR 16/15 A3002 RMK AO2=
KVVV 210755Z AUTO 34007KT 10SM CLR 14/12 A3009 RMK AO2=
KVWU 210755Z AUTO 00000KT 10SM CLR 15/11 A3010 RMK AO2=
KXVG 210753Z AUTO 00000KT 10SM CLR 13/12 A3008 RMK AO2=